sensor_id;sensor_type;location;lat;lon;timestamp;pressure;altitude;pressure_sealevel;temperature;humidity
6198;BME280;3132;42.622;23.328;2023-02-02T00:01:35;92808.56;;;4.04;56.66
6198;BME280;3132;42.622;23.328;2023-02-02T00:04:01;92835.28;;;4.43;56.54
6198;BME280;3132;42.622;23.328;2023-02-02T00:06:28;92838.25;;;4.35;57.05
6198;BME280;3132;42.622;23.328;2023-02-02T00:08:58;92843.66;;;4.17;57.97
6198;BME280;3132;42.622;23.328;2023-02-02T00:11:24;92833.47;;;4.10;58.32
6198;BME280;3132;42.622;23.328;2023-02-02T00:13:50;92839.72;;;4.14;60.14
6198;BME280;3132;42.622;23.328;2023-02-02T00:18:54;92832.81;;;4.03;59.59
6198;BME280;3132;42.622;23.328;2023-02-02T00:21:20;92818.16;;;3.92;59.21
6198;BME280;3132;42.622;23.328;2023-02-02T00:23:46;92820.97;;;3.91;59.56
6198;BME280;3132;42.622;23.328;2023-02-02T00:26:11;92795.84;;;3.86;59.66
6198;BME280;3132;42.622;23.328;2023-02-02T00:28:36;92816.75;;;3.85;61.64
6198;BME280;3132;42.622;23.328;2023-02-02T00:31:02;92824.50;;;3.85;62.21
6198;BME280;3132;42.622;23.328;2023-02-02T00:33:27;92829.91;;;3.83;61.51
6198;BME280;3132;42.622;23.328;2023-02-02T00:35:53;92826.22;;;3.79;62.95
6198;BME280;3132;42.622;23.328;2023-02-02T00:38:18;92843.94;;;3.87;61.63
6198;BME280;3132;42.622;23.328;2023-02-02T00:40:44;92836.94;;;3.88;63.40
6198;BME280;3132;42.622;23.328;2023-02-02T00:43:09;92824.56;;;3.73;63.07
6198;BME280;3132;42.622;23.328;2023-02-02T00:45:36;92833.41;;;3.77;63.76
6198;BME280;3132;42.622;23.328;2023-02-02T00:48:01;92832.22;;;3.68;64.34
6198;BME280;3132;42.622;23.328;2023-02-02T00:50:27;92831.53;;;3.73;64.67
6198;BME280;3132;42.622;23.328;2023-02-02T00:52:52;92813.41;;;3.56;64.92
6198;BME280;3132;42.622;23.328;2023-02-02T00:55:18;92838.41;;;3.67;64.59
6198;BME280;3132;42.622;23.328;2023-02-02T00:57:43;92841.16;;;3.77;65.20
6198;BME280;3132;42.622;23.328;2023-02-02T01:00:27;92830.25;;;3.75;64.93
6198;BME280;3132;42.622;23.328;2023-02-02T01:02:53;92829.84;;;3.78;64.55
6198;BME280;3132;42.622;23.328;2023-02-02T01:05:20;92832.00;;;3.86;64.25
6198;BME280;3132;42.622;23.328;2023-02-02T01:07:46;92820.63;;;3.71;65.50
6198;BME280;3132;42.622;23.328;2023-02-02T01:10:15;92801.03;;;3.58;64.96
6198;BME280;3132;42.622;23.328;2023-02-02T01:12:41;92826.47;;;3.78;68.43
6198;BME280;3132;42.622;23.328;2023-02-02T01:15:07;92814.84;;;3.64;64.51
6198;BME280;3132;42.622;23.328;2023-02-02T01:17:33;92817.19;;;3.65;65.56
6198;BME280;3132;42.622;23.328;2023-02-02T01:19:58;92805.13;;;3.54;65.60
6198;BME280;3132;42.622;23.328;2023-02-02T01:22:24;92816.47;;;3.53;65.79
6198;BME280;3132;42.622;23.328;2023-02-02T01:24:50;92795.34;;;3.56;64.45
6198;BME280;3132;42.622;23.328;2023-02-02T01:27:15;92782.97;;;3.58;64.55
6198;BME280;3132;42.622;23.328;2023-02-02T01:29:41;92817.09;;;3.60;65.37
6198;BME280;3132;42.622;23.328;2023-02-02T01:32:06;92826.41;;;3.61;64.72
6198;BME280;3132;42.622;23.328;2023-02-02T01:34:31;92818.03;;;3.54;64.98
6198;BME280;3132;42.622;23.328;2023-02-02T01:36:57;92805.03;;;3.49;66.22
6198;BME280;3132;42.622;23.328;2023-02-02T01:39:22;92799.47;;;3.41;66.95
6198;BME280;3132;42.622;23.328;2023-02-02T01:41:48;92746.38;;;3.16;65.39
6198;BME280;3132;42.622;23.328;2023-02-02T01:47:17;92786.13;;;3.32;65.45
6198;BME280;3132;42.622;23.328;2023-02-02T01:49:43;92793.13;;;3.48;66.23
6198;BME280;3132;42.622;23.328;2023-02-02T01:52:10;92740.13;;;3.12;64.50
6198;BME280;3132;42.622;23.328;2023-02-02T01:54:58;92784.75;;;3.41;64.06
6198;BME280;3132;42.622;23.328;2023-02-02T01:57:48;92770.19;;;3.35;65.74
6198;BME280;3132;42.622;23.328;2023-02-02T02:00:17;92765.91;;;3.41;67.99
6198;BME280;3132;42.622;23.328;2023-02-02T02:02:48;92775.81;;;3.32;65.45
6198;BME280;3132;42.622;23.328;2023-02-02T02:05:20;92776.47;;;3.39;63.42
6198;BME280;3132;42.622;23.328;2023-02-02T02:07:48;92758.69;;;3.26;63.84
6198;BME280;3132;42.622;23.328;2023-02-02T02:10:16;92775.00;;;3.31;63.55
6198;BME280;3132;42.622;23.328;2023-02-02T02:12:41;92754.59;;;3.30;63.45
6198;BME280;3132;42.622;23.328;2023-02-02T02:15:07;92746.81;;;3.25;61.52
6198;BME280;3132;42.622;23.328;2023-02-02T02:24:07;92780.63;;;3.28;63.76
6198;BME280;3132;42.622;23.328;2023-02-02T02:32:45;92772.75;;;3.07;63.86
6198;BME280;3132;42.622;23.328;2023-02-02T02:35:36;92756.75;;;3.05;63.57
6198;BME280;3132;42.622;23.328;2023-02-02T02:38:14;92778.34;;;3.15;62.01
6198;BME280;3132;42.622;23.328;2023-02-02T02:40:53;92765.59;;;3.09;62.49
6198;BME280;3132;42.622;23.328;2023-02-02T02:43:30;92767.38;;;3.08;63.32
6198;BME280;3132;42.622;23.328;2023-02-02T02:45:57;92779.50;;;2.96;62.64
6198;BME280;3132;42.622;23.328;2023-02-02T02:48:23;92773.78;;;3.06;61.91
6198;BME280;3132;42.622;23.328;2023-02-02T02:50:48;92784.13;;;3.22;59.90
6198;BME280;3132;42.622;23.328;2023-02-02T02:53:20;92724.28;;;2.81;58.84
6198;BME280;3132;42.622;23.328;2023-02-02T02:58:21;92770.63;;;3.04;57.29
6198;BME280;3132;42.622;23.328;2023-02-02T03:01:09;92763.47;;;3.06;56.86
6198;BME280;3132;42.622;23.328;2023-02-02T03:06:15;92784.47;;;3.26;55.06
6198;BME280;3132;42.622;23.328;2023-02-02T03:09:07;92740.00;;;3.19;54.71
6198;BME280;3132;42.622;23.328;2023-02-02T03:11:35;92768.31;;;3.30;55.89
6198;BME280;3132;42.622;23.328;2023-02-02T03:14:01;92765.69;;;3.42;55.82
6198;BME280;3132;42.622;23.328;2023-02-02T03:16:27;92761.69;;;3.35;58.35
6198;BME280;3132;42.622;23.328;2023-02-02T03:18:52;92764.78;;;3.37;58.98
6198;BME280;3132;42.622;23.328;2023-02-02T03:21:20;92740.59;;;3.09;58.73
6198;BME280;3132;42.622;23.328;2023-02-02T03:23:45;92771.94;;;3.18;59.00
6198;BME280;3132;42.622;23.328;2023-02-02T03:26:11;92766.78;;;3.18;59.99
6198;BME280;3132;42.622;23.328;2023-02-02T03:28:37;92756.19;;;3.03;60.15
6198;BME280;3132;42.622;23.328;2023-02-02T03:31:03;92749.09;;;3.10;60.30
6198;BME280;3132;42.622;23.328;2023-02-02T03:33:32;92738.59;;;3.00;60.37
6198;BME280;3132;42.622;23.328;2023-02-02T03:35:59;92740.28;;;2.94;60.47
6198;BME280;3132;42.622;23.328;2023-02-02T03:38:24;92756.81;;;3.10;59.97
6198;BME280;3132;42.622;23.328;2023-02-02T03:40:50;92751.47;;;3.00;59.73
6198;BME280;3132;42.622;23.328;2023-02-02T03:43:22;92760.56;;;3.02;61.96
6198;BME280;3132;42.622;23.328;2023-02-02T03:46:00;92763.72;;;2.93;62.06
6198;BME280;3132;42.622;23.328;2023-02-02T03:48:26;92744.47;;;2.84;61.88
6198;BME280;3132;42.622;23.328;2023-02-02T03:50:52;92726.25;;;2.62;61.80
6198;BME280;3132;42.622;23.328;2023-02-02T03:53:18;92773.94;;;2.88;61.53
6198;BME280;3132;42.622;23.328;2023-02-02T03:55:44;92761.97;;;3.10;59.20
6198;BME280;3132;42.622;23.328;2023-02-02T03:58:09;92749.66;;;3.12;67.11
6198;BME280;3132;42.622;23.328;2023-02-02T04:00:34;92773.31;;;3.09;59.85
6198;BME280;3132;42.622;23.328;2023-02-02T04:03:00;92771.88;;;3.01;59.86
6198;BME280;3132;42.622;23.328;2023-02-02T04:05:25;92766.84;;;2.95;60.42
6198;BME280;3132;42.622;23.328;2023-02-02T04:07:52;92748.94;;;2.88;60.96
6198;BME280;3132;42.622;23.328;2023-02-02T04:10:17;92773.22;;;3.04;59.84
6198;BME280;3132;42.622;23.328;2023-02-02T04:12:43;92766.84;;;2.95;59.52
6198;BME280;3132;42.622;23.328;2023-02-02T04:15:09;92779.63;;;3.01;58.33
6198;BME280;3132;42.622;23.328;2023-02-02T04:17:34;92773.31;;;3.09;59.04
6198;BME280;3132;42.622;23.328;2023-02-02T04:20:01;92766.63;;;2.96;57.52
6198;BME280;3132;42.622;23.328;2023-02-02T04:22:27;92766.13;;;3.11;56.62
6198;BME280;3132;42.622;23.328;2023-02-02T04:24:52;92763.91;;;3.03;56.84
6198;BME280;3132;42.622;23.328;2023-02-02T04:27:18;92780.34;;;3.13;57.52
6198;BME280;3132;42.622;23.328;2023-02-02T04:29:43;92770.56;;;3.27;63.41
6198;BME280;3132;42.622;23.328;2023-02-02T04:32:09;92794.78;;;3.26;60.73
6198;BME280;3132;42.622;23.328;2023-02-02T04:34:34;92798.09;;;3.38;57.34
6198;BME280;3132;42.622;23.328;2023-02-02T04:36:59;92795.47;;;3.33;56.02
6198;BME280;3132;42.622;23.328;2023-02-02T04:39:25;92789.31;;;3.22;57.99
6198;BME280;3132;42.622;23.328;2023-02-02T04:41:50;92787.75;;;3.21;55.16
6198;BME280;3132;42.622;23.328;2023-02-02T04:44:16;92778.69;;;3.19;55.52
6198;BME280;3132;42.622;23.328;2023-02-02T04:46:42;92787.88;;;3.15;59.18
6198;BME280;3132;42.622;23.328;2023-02-02T04:49:11;92780.50;;;3.07;55.59
6198;BME280;3132;42.622;23.328;2023-02-02T04:51:38;92794.69;;;3.21;54.66
6198;BME280;3132;42.622;23.328;2023-02-02T04:54:04;92786.53;;;3.12;54.88
6198;BME280;3132;42.622;23.328;2023-02-02T04:56:30;92781.56;;;3.22;54.52
6198;BME280;3132;42.622;23.328;2023-02-02T04:58:55;92792.31;;;3.31;53.72
6198;BME280;3132;42.622;23.328;2023-02-02T05:01:21;92801.44;;;3.50;51.33
6198;BME280;3132;42.622;23.328;2023-02-02T05:03:47;92757.06;;;3.08;52.82
6198;BME280;3132;42.622;23.328;2023-02-02T05:06:14;92799.03;;;3.32;53.12
6198;BME280;3132;42.622;23.328;2023-02-02T05:08:39;92780.13;;;3.15;55.02
6198;BME280;3132;42.622;23.328;2023-02-02T05:11:11;92799.50;;;3.29;54.81
6198;BME280;3132;42.622;23.328;2023-02-02T05:13:37;92792.00;;;3.16;56.93
6198;BME280;3132;42.622;23.328;2023-02-02T05:16:03;92774.75;;;3.16;57.22
6198;BME280;3132;42.622;23.328;2023-02-02T05:18:28;92794.78;;;3.26;56.06
6198;BME280;3132;42.622;23.328;2023-02-02T05:20:58;92792.66;;;3.35;55.79
6198;BME280;3132;42.622;23.328;2023-02-02T05:23:24;92798.44;;;3.42;56.52
6198;BME280;3132;42.622;23.328;2023-02-02T05:25:53;92786.13;;;3.60;55.23
6198;BME280;3132;42.622;23.328;2023-02-02T05:28:20;92779.66;;;3.29;55.20
6198;BME280;3132;42.622;23.328;2023-02-02T05:30:46;92777.53;;;3.26;55.47
6198;BME280;3132;42.622;23.328;2023-02-02T05:33:11;92713.72;;;2.94;54.62
6198;BME280;3132;42.622;23.328;2023-02-02T05:35:37;92777.41;;;3.33;55.66
6198;BME280;3132;42.622;23.328;2023-02-02T05:38:02;92779.41;;;3.31;55.33
6198;BME280;3132;42.622;23.328;2023-02-02T05:40:28;92771.00;;;3.24;57.16
6198;BME280;3132;42.622;23.328;2023-02-02T05:42:53;92780.78;;;3.22;56.42
6198;BME280;3132;42.622;23.328;2023-02-02T05:45:19;92783.69;;;3.25;55.92
6198;BME280;3132;42.622;23.328;2023-02-02T05:47:44;92774.19;;;3.14;57.57
6198;BME280;3132;42.622;23.328;2023-02-02T05:50:09;92791.66;;;3.24;56.32
6198;BME280;3132;42.622;23.328;2023-02-02T05:52:36;92798.22;;;3.31;55.55
6198;BME280;3132;42.622;23.328;2023-02-02T05:55:02;92784.94;;;3.23;55.67
6198;BME280;3132;42.622;23.328;2023-02-02T05:57:28;92795.03;;;3.13;56.04
6198;BME280;3132;42.622;23.328;2023-02-02T05:59:53;92792.41;;;3.36;53.97
6198;BME280;3132;42.622;23.328;2023-02-02T06:02:19;92774.34;;;3.36;52.87
6198;BME280;3132;42.622;23.328;2023-02-02T06:04:44;92791.88;;;3.51;52.75
6198;BME280;3132;42.622;23.328;2023-02-02T06:07:10;92818.66;;;3.61;53.56
6198;BME280;3132;42.622;23.328;2023-02-02T06:09:35;92798.16;;;3.83;56.09
6198;BME280;3132;42.622;23.328;2023-02-02T06:12:00;92790.88;;;3.80;53.31
6198;BME280;3132;42.622;23.328;2023-02-02T06:14:26;92783.97;;;3.85;51.97
6198;BME280;3132;42.622;23.328;2023-02-02T06:16:51;92783.63;;;3.65;52.01
6198;BME280;3132;42.622;23.328;2023-02-02T06:19:18;92800.06;;;3.76;52.43
6198;BME280;3132;42.622;23.328;2023-02-02T06:21:43;92815.75;;;3.86;52.09
6198;BME280;3132;42.622;23.328;2023-02-02T06:24:09;92824.50;;;3.85;53.59
6198;BME280;3132;42.622;23.328;2023-02-02T06:26:34;92797.59;;;3.81;54.92
6198;BME280;3132;42.622;23.328;2023-02-02T06:28:59;92831.25;;;3.86;54.37
6198;BME280;3132;42.622;23.328;2023-02-02T06:31:25;92834.50;;;4.09;57.07
6198;BME280;3132;42.622;23.328;2023-02-02T06:33:55;92834.25;;;4.27;58.20
6198;BME280;3132;42.622;23.328;2023-02-02T06:36:21;92840.56;;;4.03;54.74
6198;BME280;3132;42.622;23.328;2023-02-02T06:38:48;92843.28;;;4.25;54.59
6198;BME280;3132;42.622;23.328;2023-02-02T06:41:14;92820.91;;;3.86;54.84
6198;BME280;3132;42.622;23.328;2023-02-02T06:43:39;92818.38;;;3.74;55.09
6198;BME280;3132;42.622;23.328;2023-02-02T06:46:05;92862.50;;;4.01;54.57
6198;BME280;3132;42.622;23.328;2023-02-02T06:48:30;92866.63;;;4.02;55.59
6198;BME280;3132;42.622;23.328;2023-02-02T06:50:59;92850.22;;;4.24;55.80
6198;BME280;3132;42.622;23.328;2023-02-02T06:53:25;92849.06;;;4.32;56.79
6198;BME280;3132;42.622;23.328;2023-02-02T06:55:58;92847.88;;;4.23;54.54
6198;BME280;3132;42.622;23.328;2023-02-02T06:58:28;92825.47;;;4.12;55.29
6198;BME280;3132;42.622;23.328;2023-02-02T07:00:53;92841.22;;;4.27;57.64
6198;BME280;3132;42.622;23.328;2023-02-02T07:03:20;92854.22;;;4.32;57.78
6198;BME280;3132;42.622;23.328;2023-02-02T07:05:49;92848.63;;;4.07;56.65
6198;BME280;3132;42.622;23.328;2023-02-02T07:08:15;92863.53;;;4.33;57.25
6198;BME280;3132;42.622;23.328;2023-02-02T07:10:40;92848.59;;;4.18;56.24
6198;BME280;3132;42.622;23.328;2023-02-02T07:13:07;92852.41;;;4.16;57.20
6198;BME280;3132;42.622;23.328;2023-02-02T07:15:33;92863.63;;;4.21;56.38
6198;BME280;3132;42.622;23.328;2023-02-02T07:17:59;92830.41;;;3.97;57.38
6198;BME280;3132;42.622;23.328;2023-02-02T07:20:24;92854.56;;;4.35;55.14
6198;BME280;3132;42.622;23.328;2023-02-02T07:22:50;92861.34;;;4.41;55.07
6198;BME280;3132;42.622;23.328;2023-02-02T07:25:15;92876.38;;;4.61;54.56
6198;BME280;3132;42.622;23.328;2023-02-02T07:27:41;92879.69;;;4.56;54.64
6198;BME280;3132;42.622;23.328;2023-02-02T07:30:07;92875.94;;;4.47;53.78
6198;BME280;3132;42.622;23.328;2023-02-02T07:32:32;92870.44;;;4.44;58.48
6198;BME280;3132;42.622;23.328;2023-02-02T07:34:58;92877.25;;;4.33;54.89
6198;BME280;3132;42.622;23.328;2023-02-02T07:37:23;92871.47;;;4.26;55.87
6198;BME280;3132;42.622;23.328;2023-02-02T07:39:48;92879.13;;;4.38;55.97
6198;BME280;3132;42.622;23.328;2023-02-02T07:42:14;92880.78;;;4.60;55.75
6198;BME280;3132;42.622;23.328;2023-02-02T07:44:39;92873.34;;;4.80;54.49
6198;BME280;3132;42.622;23.328;2023-02-02T07:47:05;92857.91;;;4.85;55.89
6198;BME280;3132;42.622;23.328;2023-02-02T07:49:30;92858.34;;;4.82;55.77
6198;BME280;3132;42.622;23.328;2023-02-02T07:51:56;92850.69;;;4.71;55.03
6198;BME280;3132;42.622;23.328;2023-02-02T07:54:21;92853.31;;;4.92;56.03
6198;BME280;3132;42.622;23.328;2023-02-02T07:56:47;92851.63;;;5.20;54.64
6198;BME280;3132;42.622;23.328;2023-02-02T07:59:12;92799.88;;;4.81;54.62
6198;BME280;3132;42.622;23.328;2023-02-02T08:01:38;92837.94;;;5.03;58.34
6198;BME280;3132;42.622;23.328;2023-02-02T08:04:03;92827.72;;;5.13;55.19
6198;BME280;3132;42.622;23.328;2023-02-02T08:06:32;92817.66;;;4.94;55.97
6198;BME280;3132;42.622;23.328;2023-02-02T08:08:58;92832.38;;;4.94;55.45
6198;BME280;3132;42.622;23.328;2023-02-02T08:11:25;92814.38;;;4.82;56.71
6198;BME280;3132;42.622;23.328;2023-02-02T08:13:53;92834.66;;;4.90;55.54
6198;BME280;3132;42.622;23.328;2023-02-02T08:16:19;92809.13;;;4.94;56.60
6198;BME280;3132;42.622;23.328;2023-02-02T08:18:46;92822.44;;;5.46;55.48
6198;BME280;3132;42.622;23.328;2023-02-02T08:21:11;92814.75;;;5.77;55.21
6198;BME280;3132;42.622;23.328;2023-02-02T08:23:39;92839.88;;;5.77;55.45
6198;BME280;3132;42.622;23.328;2023-02-02T08:26:10;92797.13;;;5.53;55.84
6198;BME280;3132;42.622;23.328;2023-02-02T08:28:36;92811.06;;;5.04;58.93
6198;BME280;3132;42.622;23.328;2023-02-02T08:31:10;92796.34;;;4.49;59.98
6198;BME280;3132;42.622;23.328;2023-02-02T08:33:36;92807.69;;;4.65;59.40
6198;BME280;3132;42.622;23.328;2023-02-02T08:36:02;92824.19;;;4.80;59.60
6198;BME280;3132;42.622;23.328;2023-02-02T08:38:28;92810.28;;;4.65;60.47
6198;BME280;3132;42.622;23.328;2023-02-02T08:40:54;92815.44;;;4.48;62.34
6198;BME280;3132;42.622;23.328;2023-02-02T08:43:19;92822.94;;;4.83;62.21
6198;BME280;3132;42.622;23.328;2023-02-02T08:45:45;92810.88;;;4.72;62.86
6198;BME280;3132;42.622;23.328;2023-02-02T08:48:12;92835.53;;;4.96;62.60
6198;BME280;3132;42.622;23.328;2023-02-02T08:50:38;92829.16;;;5.25;61.29
6198;BME280;3132;42.622;23.328;2023-02-02T08:53:04;92804.25;;;5.19;60.36
6198;BME280;3132;42.622;23.328;2023-02-02T08:55:29;92817.44;;;5.39;60.72
6198;BME280;3132;42.622;23.328;2023-02-02T08:58:07;92789.56;;;5.25;58.84
6198;BME280;3132;42.622;23.328;2023-02-02T09:00:34;92799.56;;;5.38;60.47
6198;BME280;3132;42.622;23.328;2023-02-02T09:02:59;92772.22;;;4.44;62.58
6198;BME280;3132;42.622;23.328;2023-02-02T09:05:24;92775.03;;;4.42;64.22
6198;BME280;3132;42.622;23.328;2023-02-02T09:07:50;92797.69;;;4.02;67.69
6198;BME280;3132;42.622;23.328;2023-02-02T09:10:15;92785.09;;;4.22;66.46
6198;BME280;3132;42.622;23.328;2023-02-02T09:12:41;92809.16;;;4.77;63.74
6198;BME280;3132;42.622;23.328;2023-02-02T09:15:07;92797.09;;;5.05;62.08
6198;BME280;3132;42.622;23.328;2023-02-02T09:17:32;92808.28;;;4.88;63.75
6198;BME280;3132;42.622;23.328;2023-02-02T09:19:57;92813.22;;;5.33;62.10
6198;BME280;3132;42.622;23.328;2023-02-02T09:22:23;92744.28;;;5.01;63.59
6198;BME280;3132;42.622;23.328;2023-02-02T09:24:48;92808.94;;;5.01;63.96
6198;BME280;3132;42.622;23.328;2023-02-02T09:27:14;92806.78;;;5.36;63.10
6198;BME280;3132;42.622;23.328;2023-02-02T09:29:39;92813.31;;;5.43;65.10
6198;BME280;3132;42.622;23.328;2023-02-02T09:32:05;92806.19;;;5.29;62.08
6198;BME280;3132;42.622;23.328;2023-02-02T09:34:30;92789.22;;;5.86;58.15
6198;BME280;3132;42.622;23.328;2023-02-02T09:36:55;92780.84;;;6.05;56.95
6198;BME280;3132;42.622;23.328;2023-02-02T09:39:21;92778.94;;;5.96;59.31
6198;BME280;3132;42.622;23.328;2023-02-02T09:47:21;92796.38;;;6.37;57.56
6198;BME280;3132;42.622;23.328;2023-02-02T09:52:41;92787.59;;;6.06;57.95
6198;BME280;3132;42.622;23.328;2023-02-02T09:55:15;92787.03;;;6.36;54.82
6198;BME280;3132;42.622;23.328;2023-02-02T09:57:49;92773.19;;;6.57;56.95
6198;BME280;3132;42.622;23.328;2023-02-02T10:00:41;92781.50;;;6.59;52.46
6198;BME280;3132;42.622;23.328;2023-02-02T10:03:27;92777.09;;;6.60;53.71
6198;BME280;3132;42.622;23.328;2023-02-02T10:06:10;92780.03;;;6.73;52.95
6198;BME280;3132;42.622;23.328;2023-02-02T10:08:47;92763.50;;;6.84;53.80
6198;BME280;3132;42.622;23.328;2023-02-02T10:14:26;92653.47;;;5.87;53.43
6198;BME280;3132;42.622;23.328;2023-02-02T10:16:56;92755.97;;;6.46;51.81
6198;BME280;3132;42.622;23.328;2023-02-02T10:19:25;92737.44;;;6.64;53.35
6198;BME280;3132;42.622;23.328;2023-02-02T10:22:01;92747.84;;;6.74;52.59
6198;BME280;3132;42.622;23.328;2023-02-02T10:24:30;92733.59;;;6.72;51.21
6198;BME280;3132;42.622;23.328;2023-02-02T10:27:01;92703.50;;;6.71;50.94
6198;BME280;3132;42.622;23.328;2023-02-02T10:30:03;92736.50;;;6.80;51.74
6198;BME280;3132;42.622;23.328;2023-02-02T10:35:02;92717.44;;;7.11;51.31
6198;BME280;3132;42.622;23.328;2023-02-02T10:37:47;92715.31;;;7.08;50.67
6198;BME280;3132;42.622;23.328;2023-02-02T10:45:39;92689.94;;;7.20;50.57
6198;BME280;3132;42.622;23.328;2023-02-02T10:48:21;92677.66;;;6.96;50.58
6198;BME280;3132;42.622;23.328;2023-02-02T10:50:53;92681.78;;;6.92;51.38
6198;BME280;3132;42.622;23.328;2023-02-02T10:53:21;92689.75;;;6.70;51.82
6198;BME280;3132;42.622;23.328;2023-02-02T10:55:55;92671.00;;;6.58;52.92
6198;BME280;3132;42.622;23.328;2023-02-02T10:58:28;92669.25;;;6.74;52.72
6198;BME280;3132;42.622;23.328;2023-02-02T11:00:57;92663.34;;;6.93;52.74
6198;BME280;3132;42.622;23.328;2023-02-02T11:03:30;92662.63;;;7.03;49.77
6198;BME280;3132;42.622;23.328;2023-02-02T11:06:01;92682.44;;;7.39;50.87
6198;BME280;3132;42.622;23.328;2023-02-02T11:08:47;92671.47;;;7.12;51.00
6198;BME280;3132;42.622;23.328;2023-02-02T11:11:20;92679.03;;;7.33;50.76
6198;BME280;3132;42.622;23.328;2023-02-02T11:13:56;92671.75;;;7.20;50.58
6198;BME280;3132;42.622;23.328;2023-02-02T11:16:28;92667.09;;;7.32;52.60
6198;BME280;3132;42.622;23.328;2023-02-02T11:18:54;92664.22;;;7.14;51.10
6198;BME280;3132;42.622;23.328;2023-02-02T11:21:29;92670.09;;;6.89;50.59
6198;BME280;3132;42.622;23.328;2023-02-02T11:24:10;92663.91;;;7.00;51.86
6198;BME280;3132;42.622;23.328;2023-02-02T11:29:19;92638.44;;;6.87;50.84
6198;BME280;3132;42.622;23.328;2023-02-02T11:31:49;92629.66;;;6.98;51.47
6198;BME280;3132;42.622;23.328;2023-02-02T11:34:18;92638.72;;;7.01;52.23
6198;BME280;3132;42.622;23.328;2023-02-02T11:37:19;92631.22;;;7.09;52.86
6198;BME280;3132;42.622;23.328;2023-02-02T11:39:45;92613.56;;;7.01;51.09
6198;BME280;3132;42.622;23.328;2023-02-02T11:42:23;92604.22;;;7.00;50.51
6198;BME280;3132;42.622;23.328;2023-02-02T11:44:52;92613.03;;;6.99;49.95
6198;BME280;3132;42.622;23.328;2023-02-02T11:47:36;92614.34;;;7.02;50.61
6198;BME280;3132;42.622;23.328;2023-02-02T11:50:02;92606.06;;;7.15;50.04
6198;BME280;3132;42.622;23.328;2023-02-02T11:52:30;92619.84;;;7.25;50.19
6198;BME280;3132;42.622;23.328;2023-02-02T11:54:59;92618.03;;;7.51;51.07
6198;BME280;3132;42.622;23.328;2023-02-02T11:57:27;92617.28;;;7.45;49.96
6198;BME280;3132;42.622;23.328;2023-02-02T12:00:10;92614.66;;;7.25;50.63
6198;BME280;3132;42.622;23.328;2023-02-02T12:02:45;92606.31;;;7.13;50.10
6198;BME280;3132;42.622;23.328;2023-02-02T12:07:44;92609.34;;;6.85;49.91
6198;BME280;3132;42.622;23.328;2023-02-02T12:28:53;92609.72;;;7.39;49.86
6198;BME280;3132;42.622;23.328;2023-02-02T12:37:01;92612.06;;;7.60;50.81
6198;BME280;3132;42.622;23.328;2023-02-02T12:47:25;92607.38;;;7.32;49.92
6198;BME280;3132;42.622;23.328;2023-02-02T12:55:09;92624.22;;;7.10;44.98
6198;BME280;3132;42.622;23.328;2023-02-02T13:03:04;92626.53;;;7.01;46.83
6198;BME280;3132;42.622;23.328;2023-02-02T13:06:00;92616.69;;;7.03;47.41
6198;BME280;3132;42.622;23.328;2023-02-02T13:08:38;92623.97;;;7.11;46.57
6198;BME280;3132;42.622;23.328;2023-02-02T13:11:13;92617.22;;;7.10;46.74
6198;BME280;3132;42.622;23.328;2023-02-02T13:16:31;92619.31;;;7.18;45.96
6198;BME280;3132;42.622;23.328;2023-02-02T13:19:07;92621.66;;;7.30;45.37
6198;BME280;3132;42.622;23.328;2023-02-02T13:21:37;92618.28;;;7.34;45.83
6198;BME280;3132;42.622;23.328;2023-02-02T13:24:05;92601.16;;;7.38;45.58
6198;BME280;3132;42.622;23.328;2023-02-02T13:26:35;92620.88;;;7.29;46.71
6198;BME280;3132;42.622;23.328;2023-02-02T13:31:55;92605.31;;;7.29;47.00
6198;BME280;3132;42.622;23.328;2023-02-02T13:34:37;92616.75;;;7.28;47.01
6198;BME280;3132;42.622;23.328;2023-02-02T13:39:53;92613.09;;;7.34;48.40
6198;BME280;3132;42.622;23.328;2023-02-02T13:48:04;92605.19;;;6.69;49.86
6198;BME280;3132;42.622;23.328;2023-02-02T13:50:36;92577.31;;;6.44;48.14
6198;BME280;3132;42.622;23.328;2023-02-02T13:53:29;92624.06;;;6.54;49.46
6198;BME280;3132;42.622;23.328;2023-02-02T13:59:39;92592.22;;;6.69;50.48
6198;BME280;3132;42.622;23.328;2023-02-02T14:01:40;92612.75;;;6.91;50.61
6198;BME280;3132;42.622;23.328;2023-02-02T14:04:19;92611.63;;;6.67;51.91
6198;BME280;3132;42.622;23.328;2023-02-02T14:07:02;92592.75;;;6.91;53.14
6198;BME280;3132;42.622;23.328;2023-02-02T14:09:31;92609.63;;;6.89;54.46
6198;BME280;3132;42.622;23.328;2023-02-02T14:12:01;92588.03;;;6.68;54.44
6198;BME280;3132;42.622;23.328;2023-02-02T14:14:27;92603.84;;;6.62;55.32
6198;BME280;3132;42.622;23.328;2023-02-02T14:16:58;92579.16;;;6.49;55.45
6198;BME280;3132;42.622;23.328;2023-02-02T14:27:00;92582.03;;;6.01;56.10
6198;BME280;3132;42.622;23.328;2023-02-02T14:32:01;92583.09;;;6.00;56.94
6198;BME280;3132;42.622;23.328;2023-02-02T14:34:30;92575.88;;;6.07;56.61
6198;BME280;3132;42.622;23.328;2023-02-02T14:45:29;92621.41;;;5.93;60.70
6198;BME280;3132;42.622;23.328;2023-02-02T14:47:58;92643.97;;;5.66;63.27
6198;BME280;3132;42.622;23.328;2023-02-02T14:55:57;92701.00;;;4.53;79.33
6198;BME280;3132;42.622;23.328;2023-02-02T14:58:33;92709.34;;;3.67;91.08
6198;BME280;3132;42.622;23.328;2023-02-02T15:01:20;92719.66;;;3.22;96.22
6198;BME280;3132;42.622;23.328;2023-02-02T15:06:39;92752.72;;;3.25;100.00
6198;BME280;3132;42.622;23.328;2023-02-02T15:17:02;92786.69;;;1.67;100.00
6198;BME280;3132;42.622;23.328;2023-02-02T15:25:23;92797.28;;;1.59;100.00
6198;BME280;3132;42.622;23.328;2023-02-02T15:30:45;92829.41;;;1.57;100.00
6198;BME280;3132;42.622;23.328;2023-02-02T15:33:49;92822.13;;;1.65;100.00
6198;BME280;3132;42.622;23.328;2023-02-02T15:36:21;92828.31;;;1.76;100.00
6198;BME280;3132;42.622;23.328;2023-02-02T15:38:51;92834.03;;;1.67;100.00
6198;BME280;3132;42.622;23.328;2023-02-02T15:41:24;92834.88;;;1.60;100.00
6198;BME280;3132;42.622;23.328;2023-02-02T15:43:50;92832.19;;;1.55;100.00
6198;BME280;3132;42.622;23.328;2023-02-02T15:46:21;92842.81;;;1.59;100.00
6198;BME280;3132;42.622;23.328;2023-02-02T15:49:27;92830.78;;;1.41;100.00
6198;BME280;3132;42.622;23.328;2023-02-02T15:51:55;92846.91;;;1.48;100.00
6198;BME280;3132;42.622;23.328;2023-02-02T15:54:28;92816.06;;;1.48;100.00
6198;BME280;3132;42.622;23.328;2023-02-02T15:56:55;92817.00;;;1.36;100.00
6198;BME280;3132;42.622;23.328;2023-02-02T15:59:23;92831.47;;;1.48;100.00
6198;BME280;3132;42.622;23.328;2023-02-02T16:02:04;92837.41;;;1.49;100.00
6198;BME280;3132;42.622;23.328;2023-02-02T16:04:42;92843.31;;;1.49;100.00